Time;durP1;ratioP1;P1;durP2;ratioP2;P2;SDS_P1;SDS_P2;PMS_P1;PMS_P2;Temp;Humidity;BMP_temperature;BMP_pressure;BME280_temperature;BME280_humidity;BME280_pressure;Samples;Min_cycle;Max_cycle;Signal;HPM_P1;HPM_P2
2023/11/23 00:00:08;;;;;;;7.80;5.00;;;;;;;-4.40;100.00;100583.63;109404;1250;60263;-54
2023/11/23 00:02:36;;;;;;;8.70;5.10;;;;;;;-4.42;100.00;100589.52;109461;1251;72532;-54
2023/11/23 00:05:06;;;;;;;7.40;4.80;;;;;;;-4.43;100.00;100590.25;109417;1250;67394;-54
2023/11/23 00:07:34;;;;;;;7.50;4.30;;;;;;;-4.44;100.00;100597.40;109404;1251;72382;-54
2023/11/23 00:10:03;;;;;;;10.50;6.20;;;;;;;-4.48;100.00;100597.30;109405;1251;60485;-54
2023/11/23 00:12:30;;;;;;;9.40;5.10;;;;;;;-4.47;100.00;100596.53;109478;1251;59376;-54
2023/11/23 00:15:00;;;;;;;8.40;4.90;;;;;;;-4.47;100.00;100594.17;109449;1251;73533;-56
2023/11/23 00:17:29;;;;;;;7.70;5.40;;;;;;;-4.49;100.00;100589.84;109492;1250;67708;-54
2023/11/23 00:19:58;;;;;;;8.40;4.70;;;;;;;-4.52;100.00;100588.00;109416;1251;72747;-54
2023/11/23 00:22:26;;;;;;;7.80;4.70;;;;;;;-4.55;100.00;100588.30;109388;1251;60716;-54
2023/11/23 00:24:54;;;;;;;7.10;4.00;;;;;;;-4.55;100.00;100574.74;109461;1251;59044;-55
2023/11/23 00:27:21;;;;;;;8.00;4.50;;;;;;;-4.55;100.00;100575.26;109386;1252;74702;-54
2023/11/23 00:29:49;;;;;;;7.30;4.30;;;;;;;-4.57;100.00;100572.30;109429;1251;67109;-54
2023/11/23 00:32:17;;;;;;;9.00;5.40;;;;;;;-4.60;100.00;100576.02;109443;1251;71384;-54
2023/11/23 00:34:45;;;;;;;8.30;4.60;;;;;;;-4.61;100.00;100573.17;109441;1251;59568;-54
2023/11/23 00:37:13;;;;;;;8.90;4.80;;;;;;;-4.62;100.00;100571.54;109415;1251;60137;-54
2023/11/23 00:39:40;;;;;;;7.30;4.40;;;;;;;-4.61;100.00;100567.96;109503;1251;73429;-54
2023/11/23 00:42:08;;;;;;;8.00;4.60;;;;;;;-4.63;100.00;100571.08;109439;1250;67402;-54
2023/11/23 00:44:37;;;;;;;8.30;5.20;;;;;;;-4.65;100.00;100566.27;109401;1250;71439;-54
2023/11/23 00:47:06;;;;;;;9.70;4.80;;;;;;;-4.66;100.00;100565.45;109397;1251;59021;-56
2023/11/23 00:49:34;;;;;;;8.30;5.70;;;;;;;-4.67;100.00;100568.39;109379;1251;60154;-54
2023/11/23 00:52:02;;;;;;;8.70;4.90;;;;;;;-4.66;100.00;100572.93;109447;1250;73742;-54
2023/11/23 00:54:37;;;;;;;7.40;4.30;;;;;;;-4.66;100.00;100576.65;109442;1250;67025;-54
2023/11/23 00:57:06;;;;;;;6.30;4.00;;;;;;;-4.66;100.00;100577.66;109388;1251;72599;-53
2023/11/23 00:59:33;;;;;;;8.00;4.60;;;;;;;-4.66;100.00;100578.68;109391;1252;58938;-53
2023/11/23 01:02:02;;;;;;;7.60;4.50;;;;;;;-4.66;100.00;100574.11;109445;1251;60175;-53
2023/11/23 01:04:30;;;;;;;7.50;4.60;;;;;;;-4.68;100.00;100569.93;109361;1251;73611;-53
2023/11/23 01:06:58;;;;;;;9.20;5.40;;;;;;;-4.70;100.00;100565.00;109402;1251;66126;-55
2023/11/23 01:09:26;;;;;;;8.10;4.70;;;;;;;-4.71;100.00;100567.06;109376;1251;73211;-53
2023/11/23 01:11:54;;;;;;;6.50;3.90;;;;;;;-4.72;100.00;100566.27;109373;1251;58916;-54
2023/11/23 01:14:23;;;;;;;7.60;4.10;;;;;;;-4.75;100.00;100559.65;109473;1250;59172;-53
2023/11/23 01:16:51;;;;;;;5.90;4.00;;;;;;;-4.81;100.00;100557.75;109327;1251;74742;-54
2023/11/23 01:19:18;;;;;;;7.30;4.40;;;;;;;-4.89;100.00;100554.61;109378;1251;68482;-53
2023/11/23 01:21:46;;;;;;;7.70;4.80;;;;;;;-4.99;100.00;100555.44;109423;1250;72713;-54
2023/11/23 01:24:14;;;;;;;9.60;5.00;;;;;;;-5.10;100.00;100554.98;109381;1251;61759;-53
2023/11/23 01:26:41;;;;;;;8.10;4.80;;;;;;;-5.21;100.00;100554.30;109437;1251;60184;-53
2023/11/23 01:29:09;;;;;;;8.80;5.40;;;;;;;-5.31;100.00;100553.27;109395;1251;75241;-53
2023/11/23 01:31:36;;;;;;;8.60;5.20;;;;;;;-5.39;100.00;100551.45;109512;1251;65656;-54
2023/11/23 01:34:04;;;;;;;6.90;4.30;;;;;;;-5.46;100.00;100550.79;109493;1251;72823;-56
2023/11/23 01:36:32;;;;;;;7.80;5.00;;;;;;;-5.53;100.00;100544.72;109437;1252;60197;-56
2023/11/23 01:38:59;;;;;;;9.80;5.00;;;;;;;-5.58;100.00;100545.64;109396;1250;59419;-56
2023/11/23 01:41:27;;;;;;;7.90;4.90;;;;;;;-5.60;100.00;100543.37;109438;1250;73540;-53
2023/11/23 01:43:56;;;;;;;8.30;4.40;;;;;;;-5.59;100.00;100543.13;109457;1251;67002;-56
2023/11/23 01:46:23;;;;;;;6.60;4.00;;;;;;;-5.57;100.00;100548.09;109431;1250;72546;-53
2023/11/23 01:48:51;;;;;;;7.20;4.20;;;;;;;-5.53;100.00;100551.98;109365;1251;60101;-53
2023/11/23 01:51:18;;;;;;;7.50;4.20;;;;;;;-5.49;100.00;100549.77;109456;1251;59042;-56
2023/11/23 01:53:46;;;;;;;7.90;4.40;;;;;;;-5.45;100.00;100550.44;109458;1251;73512;-56
2023/11/23 01:56:14;;;;;;;9.30;5.70;;;;;;;-5.43;100.00;100543.53;109414;1252;66052;-56
2023/11/23 01:58:41;;;;;;;8.30;5.20;;;;;;;-5.40;100.00;100540.17;109254;1251;72754;-56
2023/11/23 02:01:09;;;;;;;7.60;4.50;;;;;;;-5.37;100.00;100534.94;109254;1255;61830;-53
2023/11/23 02:03:36;;;;;;;7.50;4.70;;;;;;;-5.33;100.00;100537.13;109268;1251;60152;-53
2023/11/23 02:06:04;;;;;;;7.80;4.10;;;;;;;-5.31;100.00;100531.08;109407;1251;75084;-53
2023/11/23 02:08:32;;;;;;;8.00;4.40;;;;;;;-5.28;100.00;100531.61;109409;1251;67612;-53
2023/11/23 02:10:59;;;;;;;6.50;3.80;;;;;;;-5.26;100.00;100533.89;109407;1251;72699;-53
2023/11/23 02:13:27;;;;;;;7.60;3.80;;;;;;;-5.23;100.00;100537.50;109394;1251;58946;-53
2023/11/23 02:15:55;;;;;;;7.70;4.90;;;;;;;-5.24;100.00;100549.04;109343;1251;60098;-53
2023/11/23 02:18:22;;;;;;;7.70;4.30;;;;;;;-5.24;100.00;100561.08;109384;1251;74767;-55
2023/11/23 02:20:50;;;;;;;6.70;3.60;;;;;;;-5.24;100.00;100574.28;109448;1251;66922;-53
2023/11/23 02:23:18;;;;;;;6.60;3.80;;;;;;;-5.22;100.00;100586.75;109395;1251;72765;-56
2023/11/23 02:25:46;;;;;;;6.90;3.70;;;;;;;-5.22;100.00;100587.04;109431;1251;60162;-56
2023/11/23 02:28:14;;;;;;;8.20;4.40;;;;;;;-5.20;100.00;100586.45;109394;1251;60080;-58
2023/11/23 02:30:42;;;;;;;6.60;3.90;;;;;;;-5.18;100.00;100579.92;109387;1251;74779;-56
2023/11/23 02:33:09;;;;;;;5.70;3.30;;;;;;;-5.16;100.00;100585.58;109409;1251;66372;-53
2023/11/23 02:35:37;;;;;;;6.20;3.30;;;;;;;-5.15;100.00;100580.95;109418;1251;72723;-56
2023/11/23 02:38:05;;;;;;;5.90;3.30;;;;;;;-5.14;100.00;100582.62;109413;1251;60085;-57
2023/11/23 02:40:33;;;;;;;5.30;2.80;;;;;;;-5.14;100.00;100588.68;109396;1252;58918;-56
2023/11/23 02:43:07;;;;;;;5.50;3.00;;;;;;;-5.12;100.00;100590.83;109295;1251;74765;-53
2023/11/23 02:45:34;;;;;;;6.60;3.70;;;;;;;-5.11;100.00;100590.95;109398;1250;66969;-53
2023/11/23 02:48:04;;;;;;;5.50;3.00;;;;;;;-5.09;100.00;100594.08;109336;1251;72715;-55
2023/11/23 02:50:33;;;;;;;5.20;3.00;;;;;;;-5.08;100.00;100592.00;109394;1251;60301;-53
2023/11/23 02:53:01;;;;;;;5.90;3.30;;;;;;;-5.09;100.00;100593.20;109456;1250;60167;-53
2023/11/23 02:55:29;;;;;;;6.20;3.20;;;;;;;-5.08;100.00;100586.75;109421;1251;74697;-53
2023/11/23 02:57:56;;;;;;;6.60;3.40;;;;;;;-5.08;100.00;100586.21;109424;1251;65827;-54
2023/11/23 03:00:24;;;;;;;7.20;3.60;;;;;;;-5.08;100.00;100589.95;109297;1251;71478;-53
2023/11/23 03:02:52;;;;;;;7.60;3.50;;;;;;;-5.08;100.00;100585.89;109388;1251;58889;-54
2023/11/23 03:05:20;;;;;;;6.30;3.00;;;;;;;-5.08;100.00;100587.55;109376;1251;58890;-53
2023/11/23 03:07:47;;;;;;;4.90;2.20;;;;;;;-5.08;100.00;100589.92;109404;1251;74263;-55
2023/11/23 03:10:15;;;;;;;6.00;2.70;;;;;;;-5.07;100.00;100590.92;109467;1251;65753;-55
2023/11/23 03:12:43;;;;;;;7.90;3.10;;;;;;;-5.07;100.00;100588.39;109396;1251;72655;-53
2023/11/23 03:15:11;;;;;;;5.60;3.20;;;;;;;-5.06;100.00;100580.56;109431;1251;61753;-53
2023/11/23 03:17:38;;;;;;;5.20;2.30;;;;;;;-5.08;100.00;100579.10;109415;1251;58995;-55
2023/11/23 03:20:07;;;;;;;7.50;3.10;;;;;;;-5.09;100.00;100564.27;109436;1250;74853;-53
2023/11/23 03:22:34;;;;;;;4.70;2.60;;;;;;;-5.10;100.00;100559.73;109429;1251;66962;-54
2023/11/23 03:25:02;;;;;;;5.70;3.20;;;;;;;-5.10;100.00;100558.02;109408;1251;71441;-53
2023/11/23 03:27:29;;;;;;;4.80;2.60;;;;;;;-5.11;100.00;100565.18;109277;1251;59406;-55
2023/11/23 03:29:57;;;;;;;6.10;2.90;;;;;;;-5.12;100.00;100571.65;109389;1251;60065;-53
2023/11/23 03:32:29;;;;;;;4.70;2.30;;;;;;;-5.11;100.00;100577.42;109451;1251;73578;-53
2023/11/23 03:34:57;;;;;;;5.20;2.70;;;;;;;-5.11;100.00;100577.22;109430;1250;65194;-53
2023/11/23 03:37:25;;;;;;;7.70;2.70;;;;;;;-5.11;100.00;100576.89;109426;1250;72686;-56
2023/11/23 03:39:57;;;;;;;5.30;2.80;;;;;;;-5.10;100.00;100576.70;109261;1255;60151;-53
2023/11/23 03:42:25;;;;;;;6.10;3.00;;;;;;;-5.11;100.00;100578.08;109457;1251;60083;-53
2023/11/23 03:44:52;;;;;;;6.40;3.10;;;;;;;-5.12;100.00;100571.00;109498;1250;72818;-56
2023/11/23 03:47:20;;;;;;;6.10;3.30;;;;;;;-5.16;100.00;100575.08;109441;1251;66950;-56
2023/11/23 03:49:47;;;;;;;5.70;3.20;;;;;;;-5.19;100.00;100568.10;109407;1251;73472;-54
2023/11/23 03:52:15;;;;;;;5.90;3.40;;;;;;;-5.21;100.00;100567.16;109482;1251;59323;-54
2023/11/23 03:54:43;;;;;;;7.40;4.30;;;;;;;-5.22;100.00;100561.83;109453;1251;60119;-54
2023/11/23 03:57:11;;;;;;;6.40;3.60;;;;;;;-5.23;100.00;100557.46;109436;1250;75217;-54
2023/11/23 03:59:38;;;;;;;5.80;3.70;;;;;;;-5.23;100.00;100560.86;109412;1251;65973;-54
2023/11/23 04:02:06;;;;;;;6.20;3.70;;;;;;;-5.23;100.00;100561.70;109446;1251;71462;-54
2023/11/23 04:04:34;;;;;;;6.90;3.60;;;;;;;-5.23;100.00;100558.98;109455;1250;60142;-55
2023/11/23 04:07:02;;;;;;;7.40;4.20;;;;;;;-5.23;100.00;100562.22;109459;1253;59341;-53
2023/11/23 04:09:30;;;;;;;6.90;4.00;;;;;;;-5.24;100.00;100562.41;109378;1250;74678;-57
2023/11/23 04:11:57;;;;;;;6.00;3.50;;;;;;;-5.25;100.00;100566.54;109447;1250;65665;-55
2023/11/23 04:14:27;;;;;;;7.00;3.90;;;;;;;-5.24;100.00;100572.09;109449;1251;71803;-56
2023/11/23 04:16:55;;;;;;;5.40;3.30;;;;;;;-5.22;100.00;100569.48;109425;1250;59250;-54
2023/11/23 04:19:23;;;;;;;7.50;4.30;;;;;;;-5.21;100.00;100566.36;109404;1250;60094;-56
2023/11/23 04:21:51;;;;;;;5.50;3.70;;;;;;;-5.20;100.00;100569.52;109436;1252;73406;-54
2023/11/23 04:24:19;;;;;;;8.90;4.40;;;;;;;-5.20;100.00;100577.98;109502;1250;66921;-53
2023/11/23 04:26:46;;;;;;;5.30;3.40;;;;;;;-5.20;100.00;100576.81;109443;1250;71424;-53
2023/11/23 04:29:14;;;;;;;8.70;4.30;;;;;;;-5.19;100.00;100575.92;109403;1250;60474;-54
2023/11/23 04:31:42;;;;;;;5.80;3.90;;;;;;;-5.16;100.00;100578.82;109358;1251;59157;-55
2023/11/23 04:34:09;;;;;;;6.40;3.80;;;;;;;-5.15;100.00;100580.10;109455;1251;75027;-54
2023/11/23 04:36:37;;;;;;;8.30;4.80;;;;;;;-5.14;100.00;100578.23;109429;1250;66959;-54
2023/11/23 04:39:05;;;;;;;6.90;4.40;;;;;;;-5.14;100.00;100577.86;109464;1251;72652;-53
2023/11/23 04:41:32;;;;;;;7.00;4.30;;;;;;;-5.15;100.00;100576.02;109445;1250;59397;-54
2023/11/23 04:44:01;;;;;;;7.20;4.70;;;;;;;-5.14;100.00;100583.81;109461;1251;60130;-54
2023/11/23 04:46:29;;;;;;;7.50;4.70;;;;;;;-5.15;100.00;100583.67;109478;1250;74729;-54
2023/11/23 04:48:57;;;;;;;6.40;4.20;;;;;;;-5.14;100.00;100587.17;109301;1251;65868;-53
2023/11/23 04:51:24;;;;;;;7.20;4.40;;;;;;;-5.13;100.00;100583.25;109444;1251;71416;-55
2023/11/23 04:53:52;;;;;;;6.50;4.00;;;;;;;-5.11;100.00;100584.14;109425;1251;58968;-54
2023/11/23 04:56:19;;;;;;;7.10;4.10;;;;;;;-5.09;100.00;100585.92;109475;1250;58988;-54
2023/11/23 04:58:47;;;;;;;8.30;5.10;;;;;;;-5.06;100.00;100590.38;109472;1251;74729;-54
2023/11/23 05:01:15;;;;;;;6.90;4.40;;;;;;;-5.05;100.00;100592.84;109460;1251;66738;-54
2023/11/23 05:03:43;;;;;;;9.10;4.50;;;;;;;-5.04;100.00;100591.62;109424;1251;73398;-54
2023/11/23 05:06:11;;;;;;;5.90;4.00;;;;;;;-5.04;100.00;100593.64;109500;1251;61657;-54
2023/11/23 05:08:39;;;;;;;6.50;3.80;;;;;;;-5.06;100.00;100595.26;109486;1250;59209;-54
2023/11/23 05:11:07;;;;;;;8.10;4.60;;;;;;;-5.07;100.00;100601.63;109428;1253;73514;-54
2023/11/23 05:13:35;;;;;;;8.10;4.90;;;;;;;-5.09;100.00;100595.58;109431;1251;66967;-55
2023/11/23 05:16:02;;;;;;;8.30;5.10;;;;;;;-5.10;100.00;100590.73;109465;1250;72656;-54
2023/11/23 05:18:30;;;;;;;7.40;4.10;;;;;;;-5.08;100.00;100588.76;109443;1251;61766;-54
2023/11/23 05:20:58;;;;;;;7.00;4.20;;;;;;;-5.05;100.00;100578.10;109429;1250;59052;-54
2023/11/23 05:23:25;;;;;;;7.80;4.40;;;;;;;-5.03;100.00;100579.02;109438;1250;74739;-55
2023/11/23 05:25:54;;;;;;;7.90;4.60;;;;;;;-5.04;100.00;100576.50;109486;1250;67301;-54
2023/11/23 05:28:21;;;;;;;8.90;4.60;;;;;;;-5.03;100.00;100575.28;109454;1251;72342;-55
2023/11/23 05:30:49;;;;;;;7.70;4.80;;;;;;;-5.02;100.00;100568.97;109437;1251;60101;-54
2023/11/23 05:33:17;;;;;;;8.50;4.30;;;;;;;-5.03;100.00;100566.81;109452;1250;60096;-55
2023/11/23 05:35:46;;;;;;;6.20;3.70;;;;;;;-5.00;100.00;100569.91;109427;1256;75476;-54
2023/11/23 05:38:13;;;;;;;6.40;4.30;;;;;;;-5.00;100.00;100571.23;109514;1250;66998;-54
2023/11/23 05:40:41;;;;;;;7.60;4.70;;;;;;;-4.99;100.00;100574.92;109444;1251;72335;-55
2023/11/23 05:43:09;;;;;;;6.60;3.70;;;;;;;-4.97;100.00;100574.81;109438;1253;60202;-56
2023/11/23 05:45:37;;;;;;;6.60;4.10;;;;;;;-4.94;100.00;100574.31;109489;1252;58939;-54
2023/11/23 05:48:05;;;;;;;8.00;4.70;;;;;;;-4.91;100.00;100577.23;109453;1250;74734;-54
2023/11/23 05:50:33;;;;;;;7.10;4.50;;;;;;;-4.86;100.00;100578.53;109300;1250;219851;-54
2023/11/23 05:53:01;;;;;;;6.70;4.40;;;;;;;-4.80;100.00;100589.73;109404;1253;71619;-55
2023/11/23 05:55:29;;;;;;;7.10;4.60;;;;;;;-4.75;100.00;100602.54;109430;1252;59332;-54
2023/11/23 05:57:56;;;;;;;6.40;4.10;;;;;;;-4.72;100.00;100606.99;109520;1250;60098;-54
2023/11/23 06:00:24;;;;;;;5.80;3.40;;;;;;;-4.72;100.00;100608.34;109431;1251;73432;-54
2023/11/23 06:02:52;;;;;;;6.40;3.90;;;;;;;-4.72;100.00;100604.25;109471;1250;65642;-54
2023/11/23 06:05:20;;;;;;;7.50;4.00;;;;;;;-4.69;100.00;100610.55;109439;1251;71208;-54
2023/11/23 06:07:48;;;;;;;6.60;3.20;;;;;;;-4.67;100.00;100612.63;109428;1251;61685;-54
2023/11/23 06:10:16;;;;;;;6.30;3.60;;;;;;;-4.64;100.00;100614.05;109476;1251;59413;-54
2023/11/23 06:12:44;;;;;;;7.10;3.80;;;;;;;-4.62;100.00;100600.56;109435;1251;74743;-56
2023/11/23 06:15:11;;;;;;;7.20;3.60;;;;;;;-4.59;100.00;100603.98;109462;1251;65531;-54
2023/11/23 06:17:39;;;;;;;6.00;3.50;;;;;;;-4.57;100.00;100604.53;109458;1250;73160;-54
2023/11/23 06:20:12;;;;;;;7.40;3.20;;;;;;;-4.56;100.00;100607.02;109457;1251;60139;-54
2023/11/23 06:22:40;;;;;;;6.00;2.90;;;;;;;-4.57;100.00;100611.65;109446;1252;58905;-55
2023/11/23 06:25:07;;;;;;;4.90;2.70;;;;;;;-4.59;100.00;100617.19;109218;1256;74668;-54
2023/11/23 06:27:35;;;;;;;5.70;2.80;;;;;;;-4.61;100.00;100613.23;109486;1251;66938;-55
2023/11/23 06:30:05;;;;;;;5.30;2.70;;;;;;;-4.62;100.00;100610.74;109449;1252;71506;-54
2023/11/23 06:32:33;;;;;;;5.40;2.60;;;;;;;-4.65;100.00;100611.18;109430;1252;58976;-53
2023/11/23 06:35:00;;;;;;;5.40;2.80;;;;;;;-4.67;100.00;100605.52;109419;1251;60102;-54
2023/11/23 06:37:28;;;;;;;7.00;3.00;;;;;;;-4.65;100.00;100604.08;109425;1253;74678;-53
2023/11/23 06:39:56;;;;;;;5.40;3.00;;;;;;;-4.61;100.00;100605.77;109492;1251;65717;-54
2023/11/23 06:42:24;;;;;;;4.70;2.50;;;;;;;-4.57;100.00;100600.62;109504;1251;72697;-54
2023/11/23 06:44:53;;;;;;;4.90;2.80;;;;;;;-4.56;100.00;100599.91;109418;1253;59062;-55
2023/11/23 06:47:21;;;;;;;6.80;2.70;;;;;;;-4.57;100.00;100602.84;109482;1253;58901;-57
2023/11/23 06:49:49;;;;;;;7.00;3.30;;;;;;;-4.58;100.00;100602.39;109475;1251;73408;-55
2023/11/23 06:52:16;;;;;;;6.80;2.60;;;;;;;-4.56;100.00;100600.73;109511;1251;66976;-53
2023/11/23 06:54:44;;;;;;;5.40;2.90;;;;;;;-4.52;100.00;100602.23;109417;1253;71452;-54
2023/11/23 06:57:12;;;;;;;5.60;2.50;;;;;;;-4.54;100.00;100614.20;109420;1251;60573;-54
2023/11/23 06:59:39;;;;;;;5.20;3.20;;;;;;;-4.55;100.00;100624.61;109512;1251;61037;-54
2023/11/23 07:02:07;;;;;;;5.10;3.00;;;;;;;-4.55;100.00;100629.69;109425;1253;77048;-54
2023/11/23 07:04:37;;;;;;;5.30;3.10;;;;;;;-4.55;100.00;100639.02;109466;1251;65829;-54
2023/11/23 07:07:06;;;;;;;5.20;3.10;;;;;;;-4.53;100.00;100638.96;109454;1253;73326;-55
2023/11/23 07:09:34;;;;;;;5.00;2.80;;;;;;;-4.51;100.00;100635.10;109416;1251;60473;-54
2023/11/23 07:12:02;;;;;;;4.90;2.50;;;;;;;-4.47;100.00;100628.75;109446;1250;60120;-54
2023/11/23 07:14:29;;;;;;;5.00;2.90;;;;;;;-4.40;100.00;100626.88;109440;1254;73438;-55
2023/11/23 07:16:57;;;;;;;6.10;3.20;;;;;;;-4.33;100.00;100622.29;109451;1253;66952;-56
2023/11/23 07:19:26;;;;;;;5.40;2.80;;;;;;;-4.25;100.00;100627.98;109478;1251;72721;-54
2023/11/23 07:21:53;;;;;;;5.40;3.00;;;;;;;-4.16;100.00;100625.65;109514;1252;59089;-54
2023/11/23 07:24:21;;;;;;;4.70;2.90;;;;;;;-4.04;100.00;100617.38;109441;1251;58976;-54
2023/11/23 07:26:49;;;;;;;5.30;3.00;;;;;;;-3.90;100.00;100616.48;109455;1253;74681;-55
2023/11/23 07:29:17;;;;;;;5.20;2.70;;;;;;;-3.80;100.00;100620.02;109444;1250;65697;-54
2023/11/23 07:31:46;;;;;;;6.00;2.80;;;;;;;-3.69;100.00;100613.99;109473;1252;71422;-56
2023/11/23 07:34:14;;;;;;;5.00;2.90;;;;;;;-3.57;100.00;100616.05;109507;1251;59047;-54
2023/11/23 07:36:42;;;;;;;5.80;3.20;;;;;;;-3.45;100.00;100616.42;109486;1250;60131;-56
2023/11/23 07:39:10;;;;;;;5.30;3.10;;;;;;;-3.34;100.00;100615.49;109379;1256;74807;-54
2023/11/23 07:41:38;;;;;;;6.10;2.80;;;;;;;-3.27;100.00;100621.19;109454;1250;64984;-54
2023/11/23 07:44:06;;;;;;;6.20;3.10;;;;;;;-3.12;100.00;100619.84;109525;1251;72765;-54
2023/11/23 07:46:33;;;;;;;5.60;2.90;;;;;;;-2.86;100.00;100618.05;109436;1251;59350;-55
2023/11/23 07:49:01;;;;;;;4.40;2.80;;;;;;;-2.59;100.00;100615.26;109393;1250;59676;-55
2023/11/23 07:51:29;;;;;;;4.70;2.50;;;;;;;-2.40;100.00;100606.86;109518;1250;75209;-54
2023/11/23 07:53:56;;;;;;;5.60;3.00;;;;;;;-2.38;100.00;100595.14;109451;1250;67074;-54
2023/11/23 07:56:25;;;;;;;5.10;2.80;;;;;;;-2.49;100.00;100590.35;109430;1251;71487;-54
2023/11/23 07:58:52;;;;;;;5.00;2.60;;;;;;;-2.63;100.00;100589.00;109460;1253;59111;-54
2023/11/23 08:01:20;;;;;;;5.10;2.50;;;;;;;-2.66;100.00;100589.52;109442;1251;60031;-55
2023/11/23 08:03:47;;;;;;;5.10;2.80;;;;;;;-2.54;100.00;100591.69;109449;1250;74776;-54
2023/11/23 08:06:15;;;;;;;5.80;3.00;;;;;;;-2.35;100.00;100594.11;109298;1251;66945;-55
2023/11/23 08:08:47;;;;;;;4.50;2.60;;;;;;;-2.09;100.00;100588.31;109402;1251;73727;-55
2023/11/23 08:11:15;;;;;;;5.10;3.20;;;;;;;-1.75;100.00;100577.14;109425;1251;60225;-54
2023/11/23 08:13:43;;;;;;;4.60;2.50;;;;;;;-1.42;100.00;100568.43;109447;1251;61003;-55
2023/11/23 08:16:12;;;;;;;4.70;2.40;;;;;;;-1.28;100.00;100567.88;109497;1250;76668;-55
2023/11/23 08:18:40;;;;;;;5.40;3.00;;;;;;;-1.27;100.00;100566.91;109407;1251;66222;-55
2023/11/23 08:21:16;;;;;;;6.70;2.70;;;;;;;-1.33;100.00;100559.29;109484;1253;74834;-55
2023/11/23 08:23:44;;;;;;;5.30;2.90;;;;;;;-1.38;100.00;100555.23;109415;1251;60067;-55
2023/11/23 08:26:12;;;;;;;5.20;2.70;;;;;;;-1.40;100.00;100543.09;109430;1252;59007;-55
2023/11/23 08:28:39;;;;;;;8.60;3.60;;;;;;;-1.32;100.00;100537.92;109443;1251;74065;-55
2023/11/23 08:31:07;;;;;;;5.60;2.80;;;;;;;-1.25;100.00;100525.83;109451;1251;65933;-55
2023/11/23 08:33:35;;;;;;;3.80;2.10;;;;;;;-1.23;100.00;100511.78;109466;1251;71374;-55
2023/11/23 08:36:03;;;;;;;4.20;2.50;;;;;;;-1.25;100.00;100506.99;109434;1250;61837;-55
2023/11/23 08:38:31;;;;;;;3.90;2.10;;;;;;;-1.08;100.00;100503.44;109408;1251;60142;-56
2023/11/23 08:41:00;;;;;;;4.30;2.40;;;;;;;-0.68;100.00;100495.95;109466;1251;75602;-55
2023/11/23 08:43:28;;;;;;;4.80;2.50;;;;;;;-0.30;100.00;100485.85;109475;1250;65626;-55
2023/11/23 08:45:55;;;;;;;4.90;2.60;;;;;;;-0.11;100.00;100477.99;109458;1251;72844;-55
2023/11/23 08:48:23;;;;;;;4.80;2.30;;;;;;;0.02;100.00;100468.04;109445;1252;60316;-56
2023/11/23 08:50:51;;;;;;;4.90;2.40;;;;;;;0.16;100.00;100462.18;109433;1254;59031;-55
2023/11/23 08:53:19;;;;;;;4.90;2.40;;;;;;;0.47;100.00;100455.52;109489;1251;76758;-55
2023/11/23 08:55:48;;;;;;;5.40;2.80;;;;;;;0.67;100.00;100455.70;109522;1251;67059;-55
2023/11/23 08:58:16;;;;;;;4.20;2.40;;;;;;;0.75;100.00;100452.45;109474;1251;72741;-55
2023/11/23 09:00:44;;;;;;;4.50;2.50;;;;;;;0.75;100.00;100446.42;109427;1250;59029;-55
2023/11/23 09:03:13;;;;;;;4.20;2.40;;;;;;;0.60;100.00;100441.17;109427;1251;60050;-55
2023/11/23 09:05:41;;;;;;;5.10;2.40;;;;;;;0.59;100.00;100441.13;109441;1250;73361;-56
2023/11/23 09:08:09;;;;;;;4.80;2.30;;;;;;;0.66;100.00;100433.40;109445;1251;67699;-56
2023/11/23 09:10:37;;;;;;;4.50;2.50;;;;;;;0.77;100.00;100427.84;109413;1253;71836;-56
2023/11/23 09:13:05;;;;;;;4.00;2.40;;;;;;;0.71;100.00;100426.84;109409;1253;59456;-56
2023/11/23 09:15:32;;;;;;;4.10;2.30;;;;;;;0.82;100.00;100406.92;109426;1253;60113;-56
2023/11/23 09:18:00;;;;;;;4.40;2.10;;;;;;;0.99;100.00;100402.33;109425;1251;76960;-55
2023/11/23 09:20:28;;;;;;;4.60;2.70;;;;;;;1.24;100.00;100394.05;109418;1251;67419;-56
2023/11/23 09:22:55;;;;;;;3.60;1.80;;;;;;;1.48;100.00;100390.45;109468;1251;72718;-56
2023/11/23 09:25:24;;;;;;;4.20;2.10;;;;;;;1.61;100.00;100379.11;109427;1251;59418;-55
2023/11/23 09:27:52;;;;;;;4.10;2.30;;;;;;;1.65;100.00;100373.31;109498;1251;60885;-56
2023/11/23 09:30:21;;;;;;;4.40;2.40;;;;;;;1.60;100.00;100367.75;109400;1253;73480;-55
2023/11/23 09:32:48;;;;;;;3.80;2.10;;;;;;;1.36;100.00;100359.59;109442;1251;69591;-56
2023/11/23 09:35:16;;;;;;;3.80;2.00;;;;;;;0.89;100.00;100356.55;109450;1252;74920;-56
2023/11/23 09:37:44;;;;;;;4.50;2.50;;;;;;;0.36;100.00;100351.70;109459;1251;59349;-56
2023/11/23 09:40:20;;;;;;;4.50;2.30;;;;;;;-0.11;100.00;100342.51;109410;1253;62607;-56
2023/11/23 09:42:48;;;;;;;4.00;2.00;;;;;;;-0.54;100.00;100345.14;109515;1251;74726;-56
2023/11/23 09:45:20;;;;;;;5.50;2.30;;;;;;;-0.82;100.00;100337.52;109442;1250;68301;-55
2023/11/23 09:47:52;;;;;;;4.10;2.20;;;;;;;-1.04;100.00;100338.46;109413;1252;71431;-57
2023/11/23 09:50:20;;;;;;;4.80;2.40;;;;;;;-1.27;100.00;100346.14;109396;1253;61683;-55
2023/11/23 09:52:48;;;;;;;4.60;2.40;;;;;;;-1.44;100.00;100356.52;109453;1251;58969;-54
2023/11/23 09:55:16;;;;;;;5.90;2.80;;;;;;;-1.59;100.00;100357.52;109470;1251;78059;-54
2023/11/23 09:57:44;;;;;;;4.70;2.50;;;;;;;-1.71;100.00;100357.11;109452;1251;65628;-56
2023/11/23 10:00:14;;;;;;;5.70;2.60;;;;;;;-1.76;100.00;100355.38;109428;1253;71407;-56
2023/11/23 10:02:42;;;;;;;4.90;3.00;;;;;;;-1.83;100.00;100356.69;109431;1251;59404;-57
2023/11/23 10:05:14;;;;;;;4.70;2.60;;;;;;;-2.00;100.00;100343.71;109414;1251;61106;-56
2023/11/23 10:07:43;;;;;;;7.00;2.60;;;;;;;-2.20;100.00;100345.85;109421;1251;75767;-57
2023/11/23 10:10:11;;;;;;;5.20;2.90;;;;;;;-2.32;100.00;100339.95;109429;1251;66894;-57
2023/11/23 10:12:39;;;;;;;5.80;3.00;;;;;;;-2.37;100.00;100339.46;109422;1251;73777;-56
2023/11/23 10:15:10;;;;;;;5.20;3.00;;;;;;;-2.46;100.00;100338.47;109428;1251;61140;-56
2023/11/23 10:17:39;;;;;;;5.10;2.50;;;;;;;-2.50;100.00;100331.08;109452;1251;59481;-56
2023/11/23 10:20:21;;;;;;;4.20;2.50;;;;;;;-2.44;100.00;100328.48;109442;1251;74760;-56
2023/11/23 10:22:49;;;;;;;6.10;3.20;;;;;;;-2.43;100.00;100320.43;109413;1251;65640;-56
2023/11/23 10:25:43;;;;;;;5.80;3.10;;;;;;;-2.53;100.00;100308.98;109292;1251;76114;-56
2023/11/23 10:28:11;;;;;;;5.00;2.70;;;;;;;-2.69;100.00;100309.48;109467;1251;59238;-56
2023/11/23 10:30:39;;;;;;;4.40;2.50;;;;;;;-2.84;100.00;100306.34;109423;1251;59146;-56
2023/11/23 10:33:09;;;;;;;5.00;2.60;;;;;;;-2.92;100.00;100308.02;109476;1251;76709;-58
2023/11/23 10:35:41;;;;;;;5.60;2.70;;;;;;;-2.97;100.00;100309.54;109449;1251;68070;-56
2023/11/23 10:38:08;;;;;;;5.70;2.60;;;;;;;-3.12;100.00;100309.83;109398;1253;73725;-56
2023/11/23 10:40:36;;;;;;;5.20;3.00;;;;;;;-3.26;100.00;100305.21;109383;1251;62101;-57
2023/11/23 10:43:04;;;;;;;6.00;3.70;;;;;;;-3.32;100.00;100300.33;109371;1250;62164;-56
2023/11/23 10:45:32;;;;;;;6.30;3.70;;;;;;;-3.39;100.00;100300.38;109523;1251;74754;-56
2023/11/23 10:48:03;;;;;;;6.60;3.90;;;;;;;-3.47;100.00;100294.94;109289;1250;65695;-56
2023/11/23 10:50:32;;;;;;;6.30;3.60;;;;;;;-3.51;100.00;100288.27;109429;1251;72699;-56
2023/11/23 10:53:01;;;;;;;6.60;3.70;;;;;;;-3.58;100.00;100290.16;109430;1251;60688;-56
2023/11/23 10:55:28;;;;;;;6.70;4.00;;;;;;;-3.64;100.00;100283.07;109494;1251;60088;-56
2023/11/23 10:58:04;;;;;;;6.80;3.80;;;;;;;-3.71;100.00;100277.98;109468;1251;75934;-56
2023/11/23 11:00:32;;;;;;;7.30;4.10;;;;;;;-3.78;100.00;100277.78;109468;1250;67044;-58
2023/11/23 11:03:00;;;;;;;6.40;3.90;;;;;;;-3.81;100.00;100268.12;109443;1251;71153;-56
2023/11/23 11:05:35;;;;;;;9.30;5.30;;;;;;;-3.81;100.00;100255.04;109280;1258;61395;-56
2023/11/23 11:08:07;;;;;;;7.40;4.40;;;;;;;-3.81;100.00;100249.42;109503;1251;60022;-56
2023/11/23 11:10:41;;;;;;;6.40;3.50;;;;;;;-3.84;100.00;100241.61;109401;1251;75722;-56
2023/11/23 11:13:16;;;;;;;7.40;4.00;;;;;;;-3.87;100.00;100241.11;109523;1250;65506;-56